Time,TemperatureF,DewpointF,PressureIn,WindDirection,WindDirectionDegrees,WindSpeedMPH,WindSpeedGustMPH,Humidity,HourlyPrecipIn,Conditions,Clouds,dailyrainin,SoftwareType,DateUTC
2013-05-26 00:05:00,71.1,17.7,29.86,West,270,1.6,-999.0,13,-99.99,,,0.00,Acu-Link.com,2013-05-26 06:05:00,
2013-05-26 00:20:00,70.2,18.8,29.86,SW,225,2.2,-999.0,14,-99.99,,,0.00,Acu-Link.com,2013-05-26 06:20:00,
2013-05-26 00:36:00,69.6,18.3,29.86,NW,315,2.2,-999.0,14,-99.99,,,0.00,Acu-Link.com,2013-05-26 06:36:00,
2013-05-26 00:51:00,68.4,18.9,29.87,West,270,0.0,-999.0,15,-99.99,,,0.00,Acu-Link.com,2013-05-26 06:51:00,
2013-05-26 01:06:00,66.7,19.1,29.87,SSW,202,1.1,-999.0,16,-99.99,,,0.00,Acu-Link.com,2013-05-26 07:06:00,
2013-05-26 01:21:00,65.7,18.3,29.87,South,180,1.1,-999.0,16,-99.99,,,0.00,Acu-Link.com,2013-05-26 07:21:00,
2013-05-26 01:36:00,64.2,18.5,29.87,West,270,1.6,-999.0,17,-99.99,,,0.00,Acu-Link.com,2013-05-26 07:36:00,
2013-05-26 01:52:00,65.3,18.0,29.87,West,270,2.7,-999.0,16,-99.99,,,0.00,Acu-Link.com,2013-05-26 07:52:00,
2013-05-26 02:07:00,65.5,16.6,29.87,WNW,292,2.7,-999.0,15,-99.99,,,0.00,Acu-Link.com,2013-05-26 08:07:00,
2013-05-26 02:23:00,65.5,16.6,29.87,WSW,247,1.6,-999.0,15,-99.99,,,0.00,Acu-Link.com,2013-05-26 08:23:00,
2013-05-26 02:38:00,64.8,18.9,29.88,SE,135,0.0,-999.0,17,-99.99,,,0.00,Acu-Link.com,2013-05-26 08:38:00,
2013-05-26 02:53:00,63.7,19.4,29.88,East,90,2.2,-999.0,18,-99.99,,,0.00,Acu-Link.com,2013-05-26 08:53:00,
2013-05-26 03:09:00,61.9,20.4,29.89,ESE,112,0.0,-999.0,20,-99.99,,,0.00,Acu-Link.com,2013-05-26 09:09:00,
2013-05-26 03:24:00,60.8,19.5,29.89,East,90,2.2,-999.0,20,-99.99,,,0.00,Acu-Link.com,2013-05-26 09:24:00,
2013-05-26 03:39:00,59.7,20.8,29.90,SSW,202,0.0,-999.0,22,-99.99,,,0.00,Acu-Link.com,2013-05-26 09:39:00,
2013-05-26 03:54:00,58.1,20.5,29.91,West,270,0.0,-999.0,23,-99.99,,,0.00,Acu-Link.com,2013-05-26 09:54:00,
2013-05-26 04:09:00,57.9,20.4,29.92,North,0,0.0,-999.0,23,-99.99,,,0.00,Acu-Link.com,2013-05-26 10:09:00,
2013-05-26 04:25:00,57.4,20.9,29.91,ESE,112,0.0,-999.0,24,-99.99,,,0.00,Acu-Link.com,2013-05-26 10:25:00,
2013-05-26 04:40:00,56.3,21.9,29.92,WSW,247,0.0,-999.0,26,-99.99,,,0.00,Acu-Link.com,2013-05-26 10:40:00,
2013-05-26 04:55:00,56.1,21.7,29.91,West,270,0.0,-999.0,26,-99.99,,,0.00,Acu-Link.com,2013-05-26 10:55:00,
2013-05-26 05:10:00,56.1,21.7,29.91,West,270,1.1,-999.0,26,-99.99,,,0.00,Acu-Link.com,2013-05-26 11:10:00,
2013-05-26 05:25:00,56.3,20.0,29.91,North,0,0.0,-999.0,24,-99.99,,,0.00,Acu-Link.com,2013-05-26 11:25:00,
2013-05-26 05:41:00,55.6,19.4,29.91,West,270,0.0,-999.0,24,-99.99,,,0.00,Acu-Link.com,2013-05-26 11:41:00,
2013-05-26 05:56:00,55.4,19.2,29.92,West,270,0.0,-999.0,24,-99.99,,,0.00,Acu-Link.com,2013-05-26 11:56:00,
2013-05-26 06:11:00,55.4,18.2,29.92,West,270,1.6,-999.0,23,-99.99,,,0.00,Acu-Link.com,2013-05-26 12:11:00,
2013-05-26 06:26:00,55.2,19.1,29.92,SSE,157,0.0,-999.0,24,-99.99,,,0.00,Acu-Link.com,2013-05-26 12:26:00,
2013-05-26 06:41:00,55.9,19.7,29.92,WNW,292,0.0,-999.0,24,-99.99,,,0.00,Acu-Link.com,2013-05-26 12:41:00,
2013-05-26 06:57:00,60.6,19.3,29.93,WNW,292,1.6,-999.0,20,-99.99,,,0.00,Acu-Link.com,2013-05-26 12:57:00,
2013-05-26 07:12:00,64.2,25.7,29.93,South,180,2.7,-999.0,23,-99.99,,,0.00,Acu-Link.com,2013-05-26 13:12:00,
2013-05-26 07:27:00,69.4,22.7,29.94,ENE,67,0.0,-999.0,17,-99.99,,,0.00,Acu-Link.com,2013-05-26 13:27:00,
2013-05-26 07:42:00,76.5,22.0,29.93,ENE,67,2.2,-999.0,13,-99.99,,,0.00,Acu-Link.com,2013-05-26 13:42:00,
2013-05-26 07:58:00,73.4,21.3,29.94,East,90,4.7,-999.0,14,-99.99,,,0.00,Acu-Link.com,2013-05-26 13:58:00,
2013-05-26 08:13:00,75.4,26.1,29.95,SSE,157,2.7,-999.0,16,-99.99,,,0.00,Acu-Link.com,2013-05-26 14:13:00,
2013-05-26 08:28:00,76.8,24.0,29.94,East,90,2.7,-999.0,14,-99.99,,,0.00,Acu-Link.com,2013-05-26 14:28:00,
2013-05-26 08:43:00,78.3,25.2,29.95,South,180,3.1,-999.0,14,-99.99,,,0.00,Acu-Link.com,2013-05-26 14:43:00,
2013-05-26 08:58:00,80.4,25.1,29.95,SSE,157,3.1,-999.0,13,-99.99,,,0.00,Acu-Link.com,2013-05-26 14:58:00,
2013-05-26 09:14:00,84.6,24.3,29.95,SW,225,2.7,-999.0,11,-99.99,,,0.00,Acu-Link.com,2013-05-26 15:14:00,
2013-05-26 09:29:00,77.7,19.0,29.95,ENE,67,4.7,-999.0,11,-99.99,,,0.00,Acu-Link.com,2013-05-26 15:29:00,
2013-05-26 09:44:00,77.0,18.5,29.95,NE,45,3.1,-999.0,11,-99.99,,,0.00,Acu-Link.com,2013-05-26 15:44:00,
2013-05-26 09:59:00,80.2,21.0,29.94,NE,45,2.2,-999.0,11,-99.99,,,0.00,Acu-Link.com,2013-05-26 15:59:00,
2013-05-26 10:14:00,78.8,19.9,29.94,ESE,112,3.1,-999.0,11,-99.99,,,0.00,Acu-Link.com,2013-05-26 16:14:00,
2013-05-26 10:30:00,81.5,21.9,29.93,SSE,157,2.7,-999.0,11,-99.99,,,0.00,Acu-Link.com,2013-05-26 16:30:00,
2013-05-26 10:45:00,81.5,19.7,29.93,SW,225,3.1,-999.0,10,-99.99,,,0.00,Acu-Link.com,2013-05-26 16:45:00,
2013-05-26 11:00:00,82.6,22.8,29.93,SSW,202,2.2,-999.0,11,-99.99,,,0.00,Acu-Link.com,2013-05-26 17:00:00,
2013-05-26 11:15:00,83.3,18.6,29.92,SSE,157,3.8,-999.0,9,-99.99,,,0.00,Acu-Link.com,2013-05-26 17:15:00,
2013-05-26 11:30:00,84.4,21.9,29.92,South,180,2.2,-999.0,10,-99.99,,,0.00,Acu-Link.com,2013-05-26 17:30:00,
2013-05-26 11:46:00,84.6,19.5,29.92,West,270,2.2,-999.0,9,-99.99,,,0.00,Acu-Link.com,2013-05-26 17:46:00,
2013-05-26 12:01:00,85.3,17.3,29.92,West,270,7.8,-999.0,8,-99.99,,,0.00,Acu-Link.com,2013-05-26 18:01:00,
2013-05-26 12:16:00,84.9,17.1,29.91,West,270,3.8,-999.0,8,-99.99,,,0.00,Acu-Link.com,2013-05-26 18:16:00,
2013-05-26 12:31:00,85.3,17.3,29.91,WSW,247,2.7,-999.0,8,-99.99,,,0.00,Acu-Link.com,2013-05-26 18:31:00,
2013-05-26 12:47:00,86.4,18.1,29.90,NW,315,4.3,-999.0,8,-99.99,,,0.00,Acu-Link.com,2013-05-26 18:47:00,
2013-05-26 13:02:00,86.9,18.5,29.89,South,180,2.7,-999.0,8,-99.99,,,0.00,Acu-Link.com,2013-05-26 19:02:00,
2013-05-26 13:17:00,86.9,18.5,29.88,SW,225,6.3,-999.0,8,-99.99,,,0.00,Acu-Link.com,2013-05-26 19:17:00,
2013-05-26 13:32:00,88.3,16.5,29.87,West,270,5.1,-999.0,7,-99.99,,,0.00,Acu-Link.com,2013-05-26 19:32:00,
2013-05-26 13:47:00,89.8,20.6,29.86,ESE,112,4.3,-999.0,8,-99.99,,,0.00,Acu-Link.com,2013-05-26 19:47:00,
2013-05-26 14:03:00,90.3,17.9,29.86,SE,135,4.3,-999.0,7,-99.99,,,0.00,Acu-Link.com,2013-05-26 20:03:00,
2013-05-26 14:18:00,89.8,20.6,29.85,SSW,202,7.4,-999.0,8,-99.99,,,0.00,Acu-Link.com,2013-05-26 20:18:00,
2013-05-26 14:33:00,88.9,20.0,29.83,ESE,112,4.7,-999.0,8,-99.99,,,0.00,Acu-Link.com,2013-05-26 20:33:00,
2013-05-26 14:48:00,89.8,20.6,29.83,South,180,4.7,-999.0,8,-99.99,,,0.00,Acu-Link.com,2013-05-26 20:48:00,
2013-05-26 15:03:00,88.3,19.6,29.83,SSE,157,4.7,-999.0,8,-99.99,,,0.00,Acu-Link.com,2013-05-26 21:03:00,
2013-05-26 15:19:00,88.7,19.8,29.81,NE,45,3.1,-999.0,8,-99.99,,,0.00,Acu-Link.com,2013-05-26 21:19:00,
2013-05-26 15:34:00,89.2,20.2,29.81,ESE,112,10.3,-999.0,8,-99.99,,,0.00,Acu-Link.com,2013-05-26 21:34:00,
2013-05-26 15:49:00,88.9,20.0,29.80,ESE,112,3.1,-999.0,8,-99.99,,,0.00,Acu-Link.com,2013-05-26 21:49:00,
2013-05-26 16:04:00,88.3,22.4,29.79,South,180,4.3,-999.0,9,-99.99,,,0.00,Acu-Link.com,2013-05-26 22:04:00,
2013-05-26 16:19:00,89.4,20.4,29.79,ENE,67,1.6,-999.0,8,-99.99,,,0.00,Acu-Link.com,2013-05-26 22:19:00,
2013-05-26 16:35:00,89.8,20.6,29.78,ESE,112,12.5,-999.0,8,-99.99,,,0.00,Acu-Link.com,2013-05-26 22:35:00,
2013-05-26 16:50:00,90.0,20.8,29.77,SSE,157,11.0,-999.0,8,-99.99,,,0.00,Acu-Link.com,2013-05-26 22:50:00,
2013-05-26 17:05:00,90.7,21.3,29.76,South,180,4.7,-999.0,8,-99.99,,,0.00,Acu-Link.com,2013-05-26 23:05:00,
2013-05-26 17:20:00,91.9,19.1,29.75,ESE,112,6.7,-999.0,7,-99.99,,,0.00,Acu-Link.com,2013-05-26 23:20:00,
2013-05-26 17:36:00,94.8,13.4,29.75,West,270,7.8,-999.0,5,-99.99,,,0.00,Acu-Link.com,2013-05-26 23:36:00,
2013-05-26 17:51:00,94.5,13.2,29.74,South,180,2.7,-999.0,5,-99.99,,,0.00,Acu-Link.com,2013-05-26 23:51:00,
2013-05-26 18:06:00,95.2,13.7,29.74,SSW,202,4.3,-999.0,5,-99.99,,,0.00,Acu-Link.com,2013-05-27 00:06:00,
2013-05-26 18:21:00,94.3,13.0,29.74,SW,225,4.3,-999.0,5,-99.99,,,0.00,Acu-Link.com,2013-05-27 00:21:00,
2013-05-26 18:36:00,97.0,14.9,29.73,NNW,337,1.6,-999.0,5,-99.99,,,0.00,Acu-Link.com,2013-05-27 00:36:00,
2013-05-26 18:52:00,91.6,6.2,29.73,WSW,247,4.3,-999.0,4,-99.99,,,0.00,Acu-Link.com,2013-05-27 00:52:00,
2013-05-26 19:07:00,91.4,6.1,29.73,West,270,5.8,-999.0,4,-99.99,,,0.00,Acu-Link.com,2013-05-27 01:07:00,
2013-05-26 19:22:00,90.3,5.4,29.74,WSW,247,2.7,-999.0,4,-99.99,,,0.00,Acu-Link.com,2013-05-27 01:22:00,
2013-05-26 19:37:00,89.8,9.9,29.74,NW,315,4.7,-999.0,5,-99.99,,,0.00,Acu-Link.com,2013-05-27 01:37:00,
2013-05-26 19:52:00,88.0,8.6,29.75,WSW,247,4.7,-999.0,5,-99.99,,,0.00,Acu-Link.com,2013-05-27 01:52:00,
2013-05-26 20:08:00,85.5,10.9,29.74,West,270,3.8,-999.0,6,-99.99,,,0.00,Acu-Link.com,2013-05-27 02:08:00,
2013-05-26 20:23:00,83.8,9.8,29.75,West,270,8.3,-999.0,6,-99.99,,,0.00,Acu-Link.com,2013-05-27 02:23:00,
2013-05-26 20:38:00,82.6,8.9,29.75,West,270,9.4,-999.0,6,-99.99,,,0.00,Acu-Link.com,2013-05-27 02:38:00,
2013-05-26 20:53:00,81.5,8.1,29.76,West,270,8.3,-999.0,6,-99.99,,,0.00,Acu-Link.com,2013-05-27 02:53:00,
2013-05-26 21:08:00,80.4,7.3,29.76,West,270,9.8,-999.0,6,-99.99,,,0.00,Acu-Link.com,2013-05-27 03:08:00,
2013-05-26 21:24:00,79.2,6.4,29.77,WSW,247,8.3,-999.0,6,-99.99,,,0.00,Acu-Link.com,2013-05-27 03:24:00,
2013-05-26 21:39:00,78.1,5.6,29.78,SW,225,6.3,-999.0,6,-99.99,,,0.00,Acu-Link.com,2013-05-27 03:39:00,
2013-05-26 21:54:00,77.2,8.4,29.79,WNW,292,6.3,-999.0,7,-99.99,,,0.00,Acu-Link.com,2013-05-27 03:54:00,
2013-05-26 22:09:00,76.6,8.0,29.79,WNW,292,6.7,-999.0,7,-99.99,,,0.00,Acu-Link.com,2013-05-27 04:09:00,
2013-05-26 22:25:00,76.5,7.8,29.80,West,270,5.8,-999.0,7,-99.99,,,0.00,Acu-Link.com,2013-05-27 04:25:00,
2013-05-26 22:40:00,76.3,7.7,29.81,West,270,7.4,-999.0,7,-99.99,,,0.00,Acu-Link.com,2013-05-27 04:40:00,
2013-05-26 22:55:00,75.6,7.2,29.81,West,270,8.3,-999.0,7,-99.99,,,0.00,Acu-Link.com,2013-05-27 04:55:00,
2013-05-26 23:10:00,74.8,9.6,29.82,NW,315,3.1,-999.0,8,-99.99,,,0.00,Acu-Link.com,2013-05-27 05:10:00,
2013-05-26 23:25:00,72.7,10.6,29.82,NE,45,1.6,-999.0,9,-99.99,,,0.00,Acu-Link.com,2013-05-27 05:25:00,
2013-05-26 23:41:00,70.3,13.4,29.83,ESE,112,2.2,-999.0,11,-99.99,,,0.00,Acu-Link.com,2013-05-27 05:41:00,
2013-05-26 23:56:00,69.6,12.8,29.84,West,270,0.0,-999.0,11,-99.99,,,0.00,Acu-Link.com,2013-05-27 05:56:00,